Terminal Aerodrome Forecast
Issued by NWS

Home | Current Version | Previous Version | Text Only | Print | Product List | Glossary On
Versions: 1 2 3 4 5 6 7 8 9 10 11 12 13 14 15 16 17
000
FTUS43 KPAH 290500
TAFCGI
TAF
KCGI 290529Z 2906/3006 18010G15KT P6SM SCT250
     FM291400 29012G22KT P6SM BKN015
     FM292100 32014G24KT P6SM OVC025
     FM300000 34012KT P6SM BKN040=

USA.gov is the U.S. government's official web portal to all federal, state and local government web resources and services.